createdAt,value
2022-10-02T00:01:56.335Z,1.00
2022-10-02T00:04:27.449Z,0.80
2022-10-02T00:06:58.178Z,1.07
2022-10-02T00:09:29.998Z,1.00
2022-10-02T00:11:59.635Z,1.00
2022-10-02T00:14:30.664Z,1.00
2022-10-02T00:17:01.932Z,1.13
2022-10-02T00:19:30.476Z,1.30
2022-10-02T00:22:07.303Z,0.97
2022-10-02T00:24:39.076Z,1.23
2022-10-02T00:27:15.528Z,1.20
2022-10-02T00:29:49.569Z,1.40
2022-10-02T00:32:22.222Z,1.07
2022-10-02T00:35:02.068Z,1.20
2022-10-02T00:37:34.901Z,1.20
2022-10-02T00:40:10.665Z,1.40
2022-10-02T00:42:52.186Z,1.43
2022-10-02T00:45:44.441Z,1.00
2022-10-02T00:48:20.001Z,1.50
2022-10-02T00:50:54.025Z,1.10
2022-10-02T00:53:28.324Z,1.20
2022-10-02T00:56:06.296Z,1.40
2022-10-02T00:58:42.727Z,1.30
2022-10-02T01:01:13.632Z,1.70
2022-10-02T01:03:44.910Z,1.00
2022-10-02T01:06:13.763Z,1.30
2022-10-02T01:08:42.159Z,1.30
2022-10-02T01:11:10.620Z,1.23
2022-10-02T01:13:39.124Z,1.50
2022-10-02T01:16:12.516Z,1.03
2022-10-02T01:18:40.972Z,1.20
2022-10-02T01:21:14.589Z,1.10
2022-10-02T01:23:46.272Z,1.10
2022-10-02T01:26:16.062Z,1.20
2022-10-02T01:28:44.520Z,1.10
2022-10-02T01:31:14.637Z,0.97
2022-10-02T01:33:44.580Z,1.20
2022-10-02T01:36:13.849Z,1.10
2022-10-02T01:38:42.791Z,1.40
2022-10-02T01:41:12.035Z,1.23
2022-10-02T01:43:42.280Z,0.90
2022-10-02T01:46:25.444Z,1.30
2022-10-02T01:49:06.252Z,1.00
2022-10-02T01:51:48.040Z,1.37
2022-10-02T01:54:20.676Z,1.40
2022-10-02T01:56:55.530Z,1.07
2022-10-02T01:59:31.663Z,0.80
2022-10-02T02:02:07.216Z,0.90
2022-10-02T02:04:41.185Z,0.90
2022-10-02T02:07:13.003Z,1.10
2022-10-02T02:09:44.115Z,1.10
2022-10-02T02:12:15.066Z,1.20
2022-10-02T02:14:48.553Z,1.20
2022-10-02T02:17:22.473Z,0.90
2022-10-02T02:19:54.083Z,0.90
2022-10-02T02:22:24.171Z,1.70
2022-10-02T02:24:54.520Z,1.00
2022-10-02T02:27:24.754Z,1.37
2022-10-02T02:29:56.470Z,1.00
2022-10-02T02:32:28.344Z,1.30
2022-10-02T02:34:59.552Z,1.13
2022-10-02T02:37:29.205Z,0.93
2022-10-02T02:39:59.032Z,1.20
2022-10-02T02:42:30.380Z,1.23
2022-10-02T02:45:02.114Z,1.30
2022-10-02T02:47:34.621Z,1.10
2022-10-02T02:50:05.387Z,1.27
2022-10-02T02:52:36.268Z,1.40
2022-10-02T02:55:06.642Z,1.00
2022-10-02T02:57:37.060Z,1.00
2022-10-02T03:00:08.297Z,1.23
2022-10-02T03:02:36.810Z,1.17
2022-10-02T03:05:07.539Z,1.03
2022-10-02T03:07:35.985Z,1.13
2022-10-02T03:10:11.119Z,1.27
2022-10-02T03:12:46.791Z,1.40
2022-10-02T03:15:26.969Z,1.17
2022-10-02T03:18:01.798Z,1.40
2022-10-02T03:20:34.774Z,1.13
2022-10-02T03:23:07.179Z,1.10
2022-10-02T03:25:40.508Z,1.10
2022-10-02T03:28:11.046Z,1.27
2022-10-02T03:30:42.394Z,1.53
2022-10-02T03:33:12.389Z,1.30
2022-10-02T03:35:41.174Z,1.30
2022-10-02T03:38:11.480Z,1.53
2022-10-02T03:40:40.330Z,1.10
2022-10-02T03:43:09.076Z,1.30
2022-10-02T03:45:51.014Z,1.20
2022-10-02T03:48:21.571Z,1.10
2022-10-02T03:50:51.083Z,1.20
2022-10-02T03:53:20.740Z,1.13
2022-10-02T03:55:50.242Z,1.33
2022-10-02T03:58:19.485Z,1.37
2022-10-02T04:00:52.125Z,1.33
2022-10-02T04:03:23.557Z,1.30
2022-10-02T04:05:53.587Z,1.40
2022-10-02T04:08:24.384Z,1.30
2022-10-02T04:10:55.920Z,1.30
2022-10-02T04:13:28.665Z,1.40
2022-10-02T04:16:00.256Z,1.17
2022-10-02T04:18:33.549Z,1.40
2022-10-02T04:21:04.790Z,1.10
2022-10-02T04:23:34.879Z,1.40
2022-10-02T04:26:07.109Z,1.23
2022-10-02T04:28:39.163Z,1.50
2022-10-02T04:31:10.793Z,0.97
2022-10-02T04:33:40.853Z,1.00
2022-10-02T04:36:16.076Z,1.50
2022-10-02T04:39:01.200Z,1.13
2022-10-02T04:41:36.069Z,1.43
2022-10-02T04:44:08.612Z,1.33
2022-10-02T04:46:48.239Z,1.30
2022-10-02T04:49:28.121Z,1.10
2022-10-02T04:52:01.958Z,1.57
2022-10-02T04:54:36.344Z,1.50
2022-10-02T04:57:12.970Z,1.63
2022-10-02T04:59:53.813Z,1.37
2022-10-02T05:02:31.478Z,1.10
2022-10-02T05:05:10.327Z,1.20
2022-10-02T05:07:58.783Z,1.57
2022-10-02T05:10:34.153Z,1.20
2022-10-02T05:13:06.724Z,1.40
2022-10-02T05:15:43.615Z,1.53
2022-10-02T05:18:18.091Z,1.27
2022-10-02T05:20:54.309Z,1.90
2022-10-02T05:23:28.645Z,2.40
2022-10-02T05:26:05.232Z,3.13
2022-10-02T05:28:39.918Z,2.80
2022-10-02T05:31:14.989Z,2.20
2022-10-02T05:33:48.634Z,2.27
2022-10-02T05:36:26.119Z,1.73
2022-10-02T05:39:02.849Z,2.20
2022-10-02T05:41:35.755Z,1.60
2022-10-02T05:44:08.310Z,1.60
2022-10-02T05:46:39.491Z,1.83
2022-10-02T05:49:10.950Z,2.23
2022-10-02T05:51:43.548Z,2.10
2022-10-02T05:54:19.787Z,1.70
2022-10-02T05:56:50.008Z,2.63
2022-10-02T05:59:31.335Z,1.90
2022-10-02T06:02:00.164Z,1.77
2022-10-02T06:04:30.884Z,1.70
2022-10-02T06:07:03.760Z,1.87
2022-10-02T06:09:35.132Z,1.60
2022-10-02T06:12:04.901Z,2.23
2022-10-02T06:14:35.663Z,1.90
2022-10-02T06:17:05.878Z,1.70
2022-10-02T06:19:37.400Z,1.80
2022-10-02T06:22:09.678Z,2.50
2022-10-02T06:24:41.151Z,2.00
2022-10-02T06:27:12.515Z,1.60
2022-10-02T06:29:44.182Z,1.50
2022-10-02T06:32:19.095Z,2.00
2022-10-02T06:34:48.306Z,2.80
2022-10-02T06:37:32.023Z,2.00
2022-10-02T06:40:07.835Z,2.00
2022-10-02T06:42:43.358Z,1.77
2022-10-02T06:45:17.774Z,1.77
2022-10-02T06:47:59.151Z,2.03
2022-10-02T06:50:38.778Z,1.93
2022-10-02T06:53:13.714Z,1.70
2022-10-02T06:55:52.329Z,1.80
2022-10-02T06:58:32.291Z,2.10
2022-10-02T07:01:05.225Z,2.43
2022-10-02T07:03:46.266Z,1.87
2022-10-02T07:06:22.384Z,1.90
2022-10-02T07:09:08.806Z,2.07
2022-10-02T07:11:43.350Z,1.90
2022-10-02T07:14:25.448Z,2.70
2022-10-02T07:17:22.415Z,2.33
2022-10-02T07:20:02.560Z,2.83
2022-10-02T07:22:45.092Z,3.10
2022-10-02T07:25:24.931Z,2.53
2022-10-02T07:27:58.047Z,2.50
2022-10-02T07:30:26.478Z,2.33
2022-10-02T07:32:59.311Z,2.60
2022-10-02T07:35:35.061Z,1.90
2022-10-02T07:38:18.428Z,2.20
2022-10-02T07:40:51.933Z,2.20
2022-10-02T07:43:31.413Z,2.33
2022-10-02T07:46:03.384Z,3.00
2022-10-02T07:48:39.403Z,2.40
2022-10-02T07:51:31.585Z,2.30
2022-10-02T07:54:04.456Z,2.50
2022-10-02T07:56:34.158Z,2.83
2022-10-02T07:59:08.211Z,2.50
2022-10-02T08:01:38.963Z,2.80
2022-10-02T08:04:11.410Z,2.60
2022-10-02T08:06:40.502Z,2.43
2022-10-02T08:09:12.804Z,2.10
2022-10-02T08:11:48.578Z,2.40
2022-10-02T08:14:21.146Z,2.53
2022-10-02T08:16:50.994Z,2.10
2022-10-02T08:19:20.936Z,2.57
2022-10-02T08:21:50.637Z,2.23
2022-10-02T08:24:22.691Z,2.07
2022-10-02T08:26:54.418Z,2.90
2022-10-02T08:29:26.016Z,2.60
2022-10-02T08:31:54.583Z,2.77
2022-10-02T08:34:23.647Z,2.57
2022-10-02T08:36:59.729Z,2.93
2022-10-02T08:39:34.441Z,2.70
2022-10-02T08:42:09.933Z,2.90
2022-10-02T08:44:53.217Z,3.60
2022-10-02T08:47:34.536Z,3.50
2022-10-02T08:50:08.792Z,3.10
2022-10-02T08:52:48.823Z,2.00
2022-10-02T08:55:38.403Z,2.80
2022-10-02T08:58:33.747Z,2.27
2022-10-02T09:01:09.459Z,2.50
2022-10-02T09:04:10.643Z,2.40
2022-10-02T09:06:54.573Z,2.10
2022-10-02T09:09:57.377Z,2.57
2022-10-02T09:12:58.303Z,2.00
2022-10-02T09:15:35.075Z,2.30
2022-10-02T09:18:13.536Z,2.07
2022-10-02T09:20:45.852Z,2.87
2022-10-02T09:23:38.331Z,3.67
2022-10-02T09:26:15.232Z,4.33
2022-10-02T09:28:55.986Z,3.30
2022-10-02T09:31:42.175Z,2.70
2022-10-02T09:34:40.576Z,1.80
2022-10-02T09:37:31.252Z,2.20
2022-10-02T09:40:18.569Z,1.80
2022-10-02T09:42:58.001Z,1.83
2022-10-02T09:45:44.021Z,1.63
2022-10-02T09:48:46.236Z,1.60
2022-10-02T09:51:41.857Z,1.90
2022-10-02T09:54:37.647Z,1.80
2022-10-02T09:57:28.225Z,1.83
2022-10-02T10:00:20.872Z,1.50
2022-10-02T10:02:58.708Z,1.60
2022-10-02T10:05:39.653Z,1.70
2022-10-02T10:08:18.373Z,1.90
2022-10-02T10:11:00.674Z,1.60
2022-10-02T10:13:56.548Z,1.30
2022-10-02T10:16:34.386Z,1.83
2022-10-02T10:19:19.995Z,1.77
2022-10-02T10:22:00.688Z,1.50
2022-10-02T10:24:47.463Z,1.38
2022-10-02T10:27:33.036Z,1.23
2022-10-02T10:30:22.417Z,1.55
2022-10-02T10:33:04.068Z,1.48
2022-10-02T10:35:50.246Z,1.20
2022-10-02T10:38:34.713Z,1.08
2022-10-02T10:41:21.754Z,1.20
2022-10-02T10:44:02.336Z,0.90
2022-10-02T10:46:43.333Z,0.82
2022-10-02T10:49:17.419Z,0.90
2022-10-02T10:51:49.183Z,0.80
2022-10-02T10:54:40.679Z,1.00
2022-10-02T10:57:13.983Z,1.10
2022-10-02T11:00:12.897Z,0.80
2022-10-02T11:02:59.238Z,0.80
2022-10-02T11:05:54.655Z,0.80
2022-10-02T11:08:35.797Z,0.82
2022-10-02T11:11:08.804Z,0.60
2022-10-02T11:13:44.721Z,0.80
2022-10-02T11:16:26.844Z,0.85
2022-10-02T11:19:21.493Z,0.70
2022-10-02T11:22:20.588Z,0.60
2022-10-02T11:25:12.961Z,0.63
2022-10-02T11:28:00.020Z,0.70
2022-10-02T11:30:41.449Z,0.63
2022-10-02T11:33:17.054Z,0.90
2022-10-02T11:35:59.421Z,0.90
2022-10-02T11:38:39.058Z,0.70
2022-10-02T11:41:34.873Z,0.50
2022-10-02T11:44:13.004Z,0.63
2022-10-02T11:47:03.231Z,0.75
2022-10-02T11:50:02.173Z,0.57
2022-10-02T11:52:53.617Z,0.60
2022-10-02T11:55:30.798Z,0.60
2022-10-02T11:58:06.879Z,0.60
2022-10-02T12:00:47.723Z,0.60
2022-10-02T12:03:21.744Z,0.60
2022-10-02T12:05:59.930Z,0.60
2022-10-02T12:08:37.341Z,0.52
2022-10-02T12:11:09.382Z,0.57
2022-10-02T12:13:47.398Z,0.68
2022-10-02T12:16:21.748Z,0.50
2022-10-02T12:19:00.329Z,0.60
2022-10-02T12:21:52.837Z,0.73
2022-10-02T12:24:44.321Z,1.27
2022-10-02T12:27:15.021Z,2.20
2022-10-02T12:29:48.178Z,2.60
2022-10-02T12:32:23.352Z,2.57
2022-10-02T12:35:01.100Z,2.60
2022-10-02T12:37:34.113Z,2.60
2022-10-02T12:40:09.322Z,2.30
2022-10-02T12:42:57.851Z,2.60
2022-10-02T12:45:54.021Z,2.73
2022-10-02T12:48:28.385Z,3.47
2022-10-02T12:51:17.601Z,3.97
2022-10-02T12:54:10.828Z,3.90
2022-10-02T12:57:00.198Z,3.40
2022-10-02T12:59:32.495Z,4.07
2022-10-02T13:02:42.873Z,3.87
2022-10-02T13:05:32.136Z,3.53
2022-10-02T13:08:09.603Z,3.50
2022-10-02T13:10:45.335Z,3.50
2022-10-02T13:13:19.996Z,3.40
2022-10-02T13:15:54.829Z,2.93
2022-10-02T13:18:44.992Z,2.73
2022-10-02T13:21:18.344Z,2.90
2022-10-02T13:23:52.342Z,2.40
2022-10-02T13:26:29.821Z,2.60
2022-10-02T13:29:13.520Z,1.73
2022-10-02T13:31:47.665Z,1.50
2022-10-02T13:34:21.349Z,2.33
2022-10-02T13:36:56.810Z,1.33
2022-10-02T13:39:33.804Z,1.20
2022-10-02T13:42:11.222Z,1.00
2022-10-02T13:44:42.645Z,1.50
2022-10-02T13:47:22.626Z,1.53
2022-10-02T13:50:08.989Z,1.07
2022-10-02T13:52:43.236Z,1.40
2022-10-02T13:55:22.951Z,1.93
2022-10-02T13:58:08.727Z,1.50
2022-10-02T14:00:55.045Z,1.77
2022-10-02T14:03:29.086Z,1.07
2022-10-02T14:06:02.154Z,1.50
2022-10-02T14:08:42.511Z,1.60
2022-10-02T14:11:18.523Z,1.30
2022-10-02T14:13:53.633Z,1.50
2022-10-02T14:16:30.640Z,1.00
2022-10-02T14:19:07.927Z,0.90
2022-10-02T14:21:39.295Z,1.07
2022-10-02T14:24:45.231Z,1.47
2022-10-02T14:27:19.293Z,1.40
2022-10-02T14:29:52.767Z,1.10
2022-10-02T14:32:32.020Z,1.37
2022-10-02T14:35:11.777Z,1.27
2022-10-02T14:37:59.153Z,1.27
2022-10-02T14:40:31.812Z,1.40
2022-10-02T14:43:11.042Z,1.47
2022-10-02T14:46:04.952Z,1.70
2022-10-02T14:48:43.538Z,2.50
2022-10-02T14:51:19.691Z,2.10
2022-10-02T14:53:58.472Z,1.50
2022-10-02T14:56:36.768Z,1.70
2022-10-02T14:59:14.555Z,1.40
2022-10-02T15:01:45.940Z,1.40
2022-10-02T15:04:30.067Z,1.30
2022-10-02T15:07:01.592Z,1.63
2022-10-02T15:09:31.749Z,1.30
2022-10-02T15:12:08.919Z,0.90
2022-10-02T15:14:41.390Z,1.10
2022-10-02T15:17:31.470Z,0.90
2022-10-02T15:20:06.247Z,1.50
2022-10-02T15:22:37.377Z,1.20
2022-10-02T15:25:17.971Z,1.20
2022-10-02T15:27:53.218Z,1.20
2022-10-02T15:30:22.546Z,1.33
2022-10-02T15:33:10.772Z,1.83
2022-10-02T15:35:49.374Z,1.40
2022-10-02T15:38:28.470Z,1.80
2022-10-02T15:41:04.715Z,1.33
2022-10-02T15:43:41.016Z,1.77
2022-10-02T15:46:17.352Z,2.30
2022-10-02T15:49:01.901Z,2.10
2022-10-02T15:51:39.975Z,2.50
2022-10-02T15:54:14.578Z,2.00
2022-10-02T15:56:57.869Z,3.43
2022-10-02T15:59:37.532Z,2.00
2022-10-02T16:02:16.220Z,2.03
2022-10-02T16:04:55.305Z,2.47
2022-10-02T16:07:37.066Z,3.77
2022-10-02T16:10:15.091Z,3.70
2022-10-02T16:12:53.062Z,3.00
2022-10-02T16:15:24.000Z,3.10
2022-10-02T16:17:57.625Z,2.93
2022-10-02T16:20:40.949Z,2.27
2022-10-02T16:23:18.869Z,2.50
2022-10-02T16:25:56.845Z,2.73
2022-10-02T16:28:32.813Z,2.90
2022-10-02T16:31:19.265Z,2.50
2022-10-02T16:33:53.250Z,2.93
2022-10-02T16:36:32.134Z,1.70
2022-10-02T16:39:12.232Z,1.80
2022-10-02T16:41:49.823Z,2.70
2022-10-02T16:44:27.072Z,2.17
2022-10-02T16:46:57.437Z,1.90
2022-10-02T16:49:30.460Z,2.60
2022-10-02T16:52:05.095Z,1.97
2022-10-02T16:54:46.093Z,1.93
2022-10-02T16:57:23.280Z,2.40
2022-10-02T16:59:54.555Z,1.90
2022-10-02T17:02:24.794Z,1.67
2022-10-02T17:04:59.903Z,1.53
2022-10-02T17:07:38.086Z,1.67
2022-10-02T17:10:19.044Z,1.53
2022-10-02T17:12:52.691Z,2.20
2022-10-02T17:15:24.521Z,1.73
2022-10-02T17:17:57.638Z,2.10
2022-10-02T17:20:28.378Z,2.10
2022-10-02T17:22:59.327Z,2.10
2022-10-02T17:25:32.833Z,2.77
2022-10-02T17:28:03.703Z,2.23
2022-10-02T17:30:45.261Z,2.40
2022-10-02T17:33:16.636Z,2.47
2022-10-02T17:35:48.965Z,2.77
2022-10-02T17:38:27.996Z,2.30
2022-10-02T17:41:06.309Z,2.47
2022-10-02T17:43:40.024Z,2.80
2022-10-02T17:46:26.839Z,3.80
2022-10-02T17:48:57.085Z,3.27
2022-10-02T17:51:51.875Z,2.50
2022-10-02T17:54:59.880Z,3.10
2022-10-02T17:57:35.797Z,3.23
2022-10-02T18:00:09.939Z,3.23
2022-10-02T18:02:55.039Z,3.43
2022-10-02T18:05:30.544Z,3.03
2022-10-02T18:08:09.701Z,2.57
2022-10-02T18:10:43.859Z,2.37
2022-10-02T18:13:28.463Z,2.33
2022-10-02T18:16:09.139Z,2.60
2022-10-02T18:18:40.402Z,2.50
2022-10-02T18:21:16.394Z,2.67
2022-10-02T18:24:01.405Z,2.40
2022-10-02T18:26:35.630Z,2.77
2022-10-02T18:29:20.765Z,2.57
2022-10-02T18:31:57.718Z,3.17
2022-10-02T18:34:43.814Z,3.00
2022-10-02T18:37:25.122Z,2.33
2022-10-02T18:40:06.159Z,2.93
2022-10-02T18:42:45.839Z,2.70
2022-10-02T18:45:29.709Z,2.30
2022-10-02T18:48:02.782Z,2.37
2022-10-02T18:50:40.915Z,1.67
2022-10-02T18:53:36.529Z,1.40
2022-10-02T18:56:08.963Z,1.67
2022-10-02T18:58:45.462Z,1.30
2022-10-02T19:01:30.594Z,1.40
2022-10-02T19:04:06.464Z,1.20
2022-10-02T19:06:35.465Z,1.80
2022-10-02T19:09:12.887Z,2.13
2022-10-02T19:11:44.863Z,2.00
2022-10-02T19:14:15.221Z,1.70
2022-10-02T19:16:59.412Z,2.07
2022-10-02T19:19:28.922Z,1.70
2022-10-02T19:22:00.432Z,2.00
2022-10-02T19:24:32.346Z,1.83
2022-10-02T19:27:03.101Z,1.97
2022-10-02T19:29:33.786Z,3.03
2022-10-02T19:32:10.363Z,2.87
2022-10-02T19:34:38.922Z,3.90
2022-10-02T19:37:08.477Z,2.70
2022-10-02T19:39:38.037Z,1.80
2022-10-02T19:42:09.478Z,2.57
2022-10-02T19:44:40.341Z,2.90
2022-10-02T19:47:17.024Z,2.40
2022-10-02T19:49:48.580Z,2.30
2022-10-02T19:52:31.897Z,2.90
2022-10-02T19:55:04.508Z,2.80
2022-10-02T19:57:35.101Z,2.80
2022-10-02T20:00:05.106Z,2.43
2022-10-02T20:02:37.288Z,3.23
2022-10-02T20:05:08.367Z,3.77
2022-10-02T20:07:38.004Z,2.77
2022-10-02T20:10:11.306Z,3.30
2022-10-02T20:12:41.286Z,2.30
2022-10-02T20:15:12.085Z,2.97
2022-10-02T20:17:41.304Z,2.40
2022-10-02T20:20:16.029Z,2.60
2022-10-02T20:22:48.233Z,3.47
2022-10-02T20:25:20.189Z,3.30
2022-10-02T20:27:52.011Z,3.37
2022-10-02T20:30:21.591Z,2.40
2022-10-02T20:32:53.052Z,3.17
2022-10-02T20:35:24.511Z,2.40
2022-10-02T20:37:55.037Z,1.97
2022-10-02T20:40:27.552Z,2.43
2022-10-02T20:42:59.056Z,2.20
2022-10-02T20:45:31.154Z,2.00
2022-10-02T20:48:55.656Z,1.80
2022-10-02T20:51:29.751Z,2.10
2022-10-02T20:54:13.489Z,1.60
2022-10-02T20:56:54.392Z,2.30
2022-10-02T20:59:32.346Z,2.10
2022-10-02T21:02:08.747Z,2.20
2022-10-02T21:04:54.902Z,1.67
2022-10-02T21:07:43.634Z,1.90
2022-10-02T21:10:45.672Z,2.83
2022-10-02T21:13:37.927Z,2.50
2022-10-02T21:16:15.983Z,2.03
2022-10-02T21:19:03.764Z,2.30
2022-10-02T21:21:53.661Z,2.30
2022-10-02T21:24:41.229Z,3.07
2022-10-02T21:27:24.641Z,2.07
2022-10-02T21:30:04.224Z,1.70
2022-10-02T21:32:41.867Z,2.40
2022-10-02T21:35:18.960Z,2.37
2022-10-02T21:38:01.074Z,2.53
2022-10-02T21:40:52.775Z,2.30
2022-10-02T21:43:41.260Z,3.10
2022-10-02T21:46:23.104Z,2.53
2022-10-02T21:49:17.926Z,3.30
2022-10-02T21:52:03.899Z,4.43
2022-10-02T21:54:47.172Z,4.70
2022-10-02T21:57:30.445Z,4.00
2022-10-02T22:00:17.208Z,4.37
2022-10-02T22:03:04.309Z,2.77
2022-10-02T22:05:58.692Z,2.73
2022-10-02T22:08:30.388Z,3.57
2022-10-02T22:11:03.637Z,2.20
2022-10-02T22:13:34.342Z,2.40
2022-10-02T22:16:09.134Z,2.43
2022-10-02T22:18:45.748Z,2.90
2022-10-02T22:21:21.478Z,2.97
2022-10-02T22:24:05.920Z,2.93
2022-10-02T22:26:40.378Z,2.63
2022-10-02T22:29:12.305Z,2.50
2022-10-02T22:31:52.853Z,2.93
2022-10-02T22:34:28.098Z,2.33
2022-10-02T22:37:05.762Z,2.13
2022-10-02T22:39:35.242Z,2.53
2022-10-02T22:42:08.024Z,3.20
2022-10-02T22:44:38.880Z,2.53
2022-10-02T22:47:09.611Z,2.53
2022-10-02T22:49:43.153Z,3.17
2022-10-02T22:52:18.636Z,3.30
2022-10-02T22:54:49.318Z,3.47
2022-10-02T22:57:20.267Z,2.60
2022-10-02T22:59:51.925Z,3.77
2022-10-02T23:02:26.750Z,2.77
2022-10-02T23:04:58.467Z,3.67
2022-10-02T23:07:30.324Z,3.03
2022-10-02T23:10:02.176Z,3.60
2022-10-02T23:12:39.445Z,4.00
2022-10-02T23:15:24.160Z,2.63
2022-10-02T23:17:56.013Z,2.53
2022-10-02T23:20:28.572Z,4.17
2022-10-02T23:23:01.329Z,3.10
2022-10-02T23:25:32.492Z,4.30
2022-10-02T23:28:05.693Z,4.30
2022-10-02T23:30:38.020Z,4.43
2022-10-02T23:33:09.299Z,4.70
2022-10-02T23:35:40.807Z,3.20
2022-10-02T23:38:19.384Z,3.00
2022-10-02T23:41:17.638Z,3.87
2022-10-02T23:43:49.676Z,3.30
2022-10-02T23:46:20.431Z,4.43
2022-10-02T23:48:48.872Z,3.63
2022-10-02T23:51:18.375Z,3.83
2022-10-02T23:54:00.198Z,3.23
2022-10-02T23:56:46.293Z,4.47
2022-10-02T23:59:19.831Z,4.53
